createdAt,value
2022-08-08T00:01:00.512Z,6.43
2022-08-08T00:03:47.356Z,6.95
2022-08-08T00:06:28.486Z,6.80
2022-08-08T00:09:07.636Z,6.32
2022-08-08T00:11:46.867Z,6.85
2022-08-08T00:14:57.382Z,6.30
2022-08-08T00:18:03.129Z,7.00
2022-08-08T00:20:36.333Z,7.68
2022-08-08T00:23:06.076Z,6.47
2022-08-08T00:25:39.150Z,6.65
2022-08-08T00:28:34.380Z,6.30
2022-08-08T00:32:19.980Z,10.00
2022-08-08T00:34:18.791Z,7.03
2022-08-08T00:36:42.972Z,6.63
2022-08-08T00:39:36.266Z,7.20
2022-08-08T00:42:31.572Z,7.25
2022-08-08T00:45:04.367Z,7.97
2022-08-08T00:48:29.435Z,8.93
2022-08-08T00:51:18.217Z,8.40
2022-08-08T00:54:04.378Z,9.15
2022-08-08T00:56:41.787Z,8.25
2022-08-08T00:59:44.669Z,9.02
2022-08-08T01:03:59.767Z,8.75
2022-08-08T01:05:42.562Z,8.65
2022-08-08T01:08:17.874Z,8.65
2022-08-08T01:10:52.310Z,8.65
2022-08-08T01:13:38.027Z,8.52
2022-08-08T01:16:21.991Z,8.32
2022-08-08T01:19:11.679Z,8.93
2022-08-08T01:22:10.251Z,8.27
2022-08-08T01:24:54.364Z,8.80
2022-08-08T01:27:33.047Z,9.68
2022-08-08T01:30:31.259Z,8.60
2022-08-08T01:32:58.677Z,8.73
2022-08-08T01:35:30.234Z,9.05
2022-08-08T01:37:59.193Z,8.75
2022-08-08T01:40:44.345Z,8.70
2022-08-08T01:43:34.834Z,9.07
2022-08-08T01:46:12.190Z,8.50
2022-08-08T01:48:57.807Z,8.10
2022-08-08T01:52:04.993Z,8.38
2022-08-08T01:55:45.513Z,8.70
2022-08-08T01:58:10.687Z,7.90
2022-08-08T02:00:19.752Z,7.78
2022-08-08T02:02:47.183Z,7.68
2022-08-08T02:05:25.063Z,8.40
2022-08-08T02:08:07.002Z,8.10
2022-08-08T02:10:37.168Z,8.38
2022-08-08T02:13:15.857Z,7.97
2022-08-08T02:16:21.158Z,8.05
2022-08-08T02:18:48.687Z,8.52
2022-08-08T02:22:13.287Z,8.40
2022-08-08T02:27:42.622Z,7.65
2022-08-08T02:30:20.694Z,8.00
2022-08-08T02:32:51.919Z,8.20
2022-08-08T02:35:19.366Z,10.25
2022-08-08T02:38:30.124Z,8.23
2022-08-08T02:41:17.918Z,8.00
2022-08-08T02:44:37.407Z,9.07
2022-08-08T02:47:08.524Z,9.18
2022-08-08T02:49:54.755Z,9.05
2022-08-08T02:52:38.323Z,9.30
2022-08-08T02:55:37.426Z,9.02
2022-08-08T02:58:10.818Z,8.70
2022-08-08T03:00:51.046Z,8.27
2022-08-08T03:05:01.009Z,8.60
2022-08-08T03:06:34.405Z,8.75
2022-08-08T03:09:19.768Z,9.02
2022-08-08T03:12:02.548Z,8.23
2022-08-08T03:15:57.613Z,8.35
2022-08-08T03:17:52.162Z,9.30
2022-08-08T03:20:51.649Z,8.15
2022-08-08T03:23:19.267Z,8.70
2022-08-08T03:25:46.771Z,9.25
2022-08-08T03:28:19.300Z,8.77
2022-08-08T03:30:48.863Z,8.93
2022-08-08T03:33:58.786Z,9.38
2022-08-08T03:36:10.545Z,9.15
2022-08-08T03:38:55.752Z,9.07
2022-08-08T03:42:11.997Z,9.43
2022-08-08T03:44:25.358Z,9.75
2022-08-08T03:46:53.221Z,10.82
2022-08-08T03:49:57.327Z,10.63
2022-08-08T03:52:12.821Z,10.73
2022-08-08T03:55:01.565Z,12.25
2022-08-08T03:58:30.700Z,11.55
2022-08-08T04:00:17.497Z,9.88
2022-08-08T04:02:54.789Z,10.65
2022-08-08T04:05:28.518Z,10.45
2022-08-08T04:07:56.211Z,10.93
2022-08-08T04:10:25.131Z,13.07
2022-08-08T04:12:58.880Z,13.60
2022-08-08T04:15:30.529Z,12.85
2022-08-08T04:18:06.160Z,12.48
2022-08-08T04:20:36.615Z,15.43
2022-08-08T04:23:07.751Z,12.65
2022-08-08T04:25:38.326Z,13.55
2022-08-08T04:28:36.545Z,13.60
2022-08-08T04:30:55.333Z,12.82
2022-08-08T04:33:24.767Z,12.38
2022-08-08T04:35:54.222Z,11.65
2022-08-08T04:38:23.302Z,11.55
2022-08-08T04:40:54.132Z,11.65
2022-08-08T04:43:22.331Z,13.73
2022-08-08T04:45:59.709Z,29.50
2022-08-08T04:48:26.856Z,62.50
2022-08-08T04:50:53.994Z,49.10
2022-08-08T04:54:27.102Z,20.27
2022-08-08T04:56:08.327Z,16.40
2022-08-08T04:58:35.553Z,15.63
2022-08-08T05:01:06.119Z,13.90
2022-08-08T05:04:09.876Z,13.05
2022-08-08T05:06:28.161Z,10.80
2022-08-08T05:08:56.554Z,10.23
2022-08-08T05:11:30.314Z,8.70
2022-08-08T05:14:07.063Z,8.60
2022-08-08T05:16:51.029Z,7.43
2022-08-08T05:20:09.940Z,8.00
2022-08-08T05:22:08.901Z,8.00
2022-08-08T05:24:37.658Z,7.40
2022-08-08T05:27:06.078Z,7.60
2022-08-08T05:29:35.843Z,7.60
2022-08-08T05:32:06.596Z,7.25
2022-08-08T05:34:36.277Z,8.10
2022-08-08T05:37:15.859Z,7.85
2022-08-08T05:39:48.074Z,9.10
2022-08-08T05:42:15.427Z,9.52
2022-08-08T05:44:45.546Z,7.38
2022-08-08T05:47:14.188Z,7.25
2022-08-08T05:49:54.212Z,7.65
2022-08-08T05:52:35.570Z,7.80
2022-08-08T05:55:07.484Z,7.25
2022-08-08T05:58:05.715Z,7.00
2022-08-08T06:00:25.712Z,5.90
2022-08-08T06:03:13.113Z,6.85
2022-08-08T06:05:56.777Z,6.25
2022-08-08T06:08:35.554Z,6.93
2022-08-08T06:11:02.833Z,7.00
2022-08-08T06:13:36.559Z,8.65
2022-08-08T06:16:14.910Z,6.60
2022-08-08T06:18:42.929Z,7.32
2022-08-08T06:21:11.515Z,7.30
2022-08-08T06:24:04.740Z,6.25
2022-08-08T06:26:38.815Z,6.47
2022-08-08T06:29:49.345Z,6.72
2022-08-08T06:32:10.480Z,6.25
2022-08-08T06:34:42.436Z,5.93
2022-08-08T06:37:24.635Z,5.68
2022-08-08T06:40:06.109Z,5.43
2022-08-08T06:42:38.248Z,4.15
2022-08-08T06:45:05.845Z,4.22
2022-08-08T06:47:33.832Z,4.20
2022-08-08T06:50:31.760Z,3.63
2022-08-08T06:53:09.697Z,3.90
2022-08-08T06:55:42.173Z,2.95
2022-08-08T06:58:10.509Z,3.47
2022-08-08T07:00:40.905Z,3.58
2022-08-08T07:03:51.635Z,3.53
2022-08-08T07:06:02.123Z,2.95
2022-08-08T07:08:38.305Z,3.33
2022-08-08T07:11:07.761Z,2.70
2022-08-08T07:13:39.284Z,3.65
2022-08-08T07:16:35.473Z,3.25
2022-08-08T07:19:44.813Z,2.95
2022-08-08T07:22:18.777Z,2.58
2022-08-08T07:24:52.832Z,3.30
2022-08-08T07:27:22.786Z,3.90
2022-08-08T07:30:11.946Z,3.10
2022-08-08T07:32:42.267Z,3.65
2022-08-08T07:35:10.035Z,2.75
2022-08-08T07:37:56.161Z,2.75
2022-08-08T07:40:29.961Z,2.53
2022-08-08T07:43:00.100Z,2.70
2022-08-08T07:45:34.707Z,2.83
2022-08-08T07:48:14.921Z,3.08
2022-08-08T07:50:42.098Z,2.95
2022-08-08T07:54:00.648Z,2.58
2022-08-08T07:56:17.320Z,2.67
2022-08-08T07:59:03.574Z,2.50
2022-08-08T08:02:35.781Z,2.33
2022-08-08T08:04:22.891Z,2.10
2022-08-08T08:06:52.454Z,2.58
2022-08-08T08:09:22.998Z,2.20
2022-08-08T08:11:53.914Z,2.20
2022-08-08T08:14:31.703Z,2.28
2022-08-08T08:16:59.689Z,2.15
2022-08-08T08:19:45.193Z,2.25
2022-08-08T08:22:14.948Z,1.92
2022-08-08T08:24:46.483Z,2.17
2022-08-08T08:27:13.990Z,2.00
2022-08-08T08:29:42.377Z,1.90
2022-08-08T08:32:11.152Z,2.30
2022-08-08T08:34:43.287Z,2.15
2022-08-08T08:37:16.510Z,2.10
2022-08-08T08:40:01.539Z,2.10
2022-08-08T08:42:35.803Z,1.85
2022-08-08T08:45:21.203Z,1.90
2022-08-08T08:47:49.599Z,1.67
2022-08-08T08:50:31.833Z,1.63
2022-08-08T08:53:04.822Z,1.33
2022-08-08T08:55:49.515Z,1.88
2022-08-08T08:58:27.628Z,2.17
2022-08-08T09:01:08.360Z,1.92
2022-08-08T09:03:47.189Z,1.52
2022-08-08T09:06:26.542Z,1.73
2022-08-08T09:09:25.977Z,1.50
2022-08-08T09:12:08.000Z,2.10
2022-08-08T09:14:35.732Z,1.58
2022-08-08T09:17:17.423Z,1.20
2022-08-08T09:21:58.546Z,1.50
2022-08-08T09:22:35.237Z,1.30
2022-08-08T09:25:03.872Z,1.58
2022-08-08T09:27:55.726Z,1.40
2022-08-08T09:30:21.985Z,1.50
2022-08-08T09:33:12.387Z,1.30
2022-08-08T09:35:49.415Z,1.40
2022-08-08T09:38:23.039Z,1.08
2022-08-08T09:40:57.528Z,1.60
2022-08-08T09:44:05.479Z,1.30
2022-08-08T09:46:25.393Z,1.52
2022-08-08T09:48:57.632Z,1.10
2022-08-08T09:52:07.019Z,0.93
2022-08-08T09:54:37.012Z,1.20
2022-08-08T09:57:05.519Z,1.00
2022-08-08T10:00:01.855Z,1.38
2022-08-08T10:02:36.478Z,0.90
2022-08-08T10:05:14.458Z,1.10
2022-08-08T10:07:46.646Z,1.10
2022-08-08T10:10:13.800Z,1.02
2022-08-08T10:12:54.028Z,1.00
2022-08-08T10:15:25.375Z,0.90
2022-08-08T10:18:03.960Z,0.93
2022-08-08T10:21:00.287Z,1.20
2022-08-08T10:23:46.079Z,0.90
2022-08-08T10:26:25.745Z,1.35
2022-08-08T10:29:01.346Z,1.17
2022-08-08T10:31:51.664Z,1.17
2022-08-08T10:34:21.415Z,1.00
2022-08-08T10:36:49.215Z,0.90
2022-08-08T10:39:43.138Z,1.10
2022-08-08T10:42:16.745Z,1.33
2022-08-08T10:44:45.630Z,0.80
2022-08-08T10:47:13.954Z,0.80
2022-08-08T10:50:01.153Z,1.15
2022-08-08T10:52:31.505Z,0.85
2022-08-08T10:55:09.086Z,1.00
2022-08-08T10:57:54.422Z,2.95
2022-08-08T11:00:25.721Z,1.05
2022-08-08T11:02:53.616Z,1.00
2022-08-08T11:05:22.949Z,1.00
2022-08-08T11:08:30.924Z,1.20
2022-08-08T11:10:38.356Z,1.10
2022-08-08T11:13:28.995Z,0.95
2022-08-08T11:16:00.813Z,1.00
2022-08-08T11:18:35.717Z,0.80
2022-08-08T11:21:09.128Z,1.23
2022-08-08T11:23:37.696Z,1.30
2022-08-08T11:26:05.501Z,1.10
2022-08-08T11:28:38.799Z,1.50
2022-08-08T11:31:09.580Z,1.20
2022-08-08T11:33:52.598Z,1.10
2022-08-08T11:36:28.951Z,1.20
2022-08-08T11:38:56.495Z,1.13
2022-08-08T11:41:28.013Z,1.00
2022-08-08T11:44:00.502Z,1.40
2022-08-08T11:46:30.493Z,1.10
2022-08-08T11:48:58.675Z,1.20
2022-08-08T11:51:29.564Z,1.10
2022-08-08T11:54:04.278Z,1.10
2022-08-08T11:56:35.195Z,1.05
2022-08-08T11:59:11.894Z,1.08
2022-08-08T12:01:39.250Z,1.17
2022-08-08T12:04:07.000Z,1.30
2022-08-08T12:06:34.238Z,1.08
2022-08-08T12:09:07.742Z,1.40
2022-08-08T12:11:38.843Z,1.00
2022-08-08T12:14:07.887Z,1.00
2022-08-08T12:16:49.013Z,0.80
2022-08-08T12:19:16.425Z,1.23
2022-08-08T12:22:09.274Z,1.17
2022-08-08T12:24:54.282Z,1.20
2022-08-08T12:27:26.670Z,0.95
2022-08-08T12:29:58.928Z,1.08
2022-08-08T12:32:26.200Z,1.80
2022-08-08T12:35:13.175Z,1.80
2022-08-08T12:38:01.272Z,1.30
2022-08-08T12:40:54.846Z,1.15
2022-08-08T12:43:47.998Z,1.42
2022-08-08T12:46:26.501Z,3.90
2022-08-08T12:51:58.353Z,1.85
2022-08-08T12:54:28.653Z,1.27
2022-08-08T12:56:55.806Z,1.02
2022-08-08T12:59:44.577Z,2.30
2022-08-08T13:02:20.958Z,0.90
2022-08-08T13:04:50.045Z,1.00
2022-08-08T13:07:18.328Z,1.58
2022-08-08T13:10:10.728Z,1.10
2022-08-08T13:12:44.419Z,1.42
2022-08-08T13:15:19.514Z,1.40
2022-08-08T13:18:01.450Z,1.50
2022-08-08T13:20:34.061Z,1.20
2022-08-08T13:23:30.981Z,1.92
2022-08-08T13:25:51.103Z,1.20
2022-08-08T13:28:32.436Z,7.75
2022-08-08T13:31:00.238Z,4.07
2022-08-08T13:33:29.045Z,6.38
2022-08-08T13:36:10.749Z,4.18
2022-08-08T13:38:38.489Z,4.75
2022-08-08T13:41:07.406Z,3.47
2022-08-08T13:43:45.300Z,2.47
2022-08-08T13:46:26.399Z,2.55
2022-08-08T13:49:11.919Z,4.28
2022-08-08T13:51:52.705Z,1.45
2022-08-08T13:54:29.483Z,1.50
2022-08-08T13:57:01.772Z,1.15
2022-08-08T13:59:32.718Z,1.30
2022-08-08T14:02:03.938Z,1.30
2022-08-08T14:04:37.766Z,0.90
2022-08-08T14:07:21.184Z,2.00
2022-08-08T14:10:05.439Z,1.50
2022-08-08T14:12:36.571Z,1.58
2022-08-08T14:15:04.706Z,1.70
2022-08-08T14:17:58.516Z,1.30
2022-08-08T14:20:56.436Z,1.92
2022-08-08T14:24:03.849Z,1.40
2022-08-08T14:26:00.787Z,1.38
2022-08-08T14:28:39.907Z,1.40
2022-08-08T14:31:09.323Z,1.50
2022-08-08T14:33:36.864Z,1.95
2022-08-08T14:36:05.043Z,2.85
2022-08-08T14:38:33.553Z,1.70
2022-08-08T14:41:53.651Z,1.20
2022-08-08T14:44:11.393Z,1.20
2022-08-08T14:46:40.721Z,1.13
2022-08-08T14:49:32.160Z,1.15
2022-08-08T14:52:07.214Z,1.23
2022-08-08T14:54:34.431Z,1.70
2022-08-08T14:57:04.243Z,2.53
2022-08-08T14:59:50.796Z,3.15
2022-08-08T15:02:31.269Z,2.45
2022-08-08T15:05:10.438Z,3.35
2022-08-08T15:07:40.691Z,1.52
2022-08-08T15:10:09.264Z,1.30
2022-08-08T15:12:37.084Z,1.58
2022-08-08T15:15:06.806Z,1.25
2022-08-08T15:17:37.192Z,1.42
2022-08-08T15:20:06.101Z,1.40
2022-08-08T15:22:35.919Z,1.50
2022-08-08T15:25:08.515Z,1.50
2022-08-08T15:28:03.905Z,1.85
2022-08-08T15:30:32.143Z,1.20
2022-08-08T15:32:59.886Z,1.63
2022-08-08T15:35:27.325Z,2.75
2022-08-08T15:37:57.054Z,2.22
2022-08-08T15:40:28.145Z,2.72
2022-08-08T15:42:55.910Z,1.85
2022-08-08T15:45:23.195Z,1.73
2022-08-08T15:48:11.137Z,1.38
2022-08-08T15:51:03.190Z,1.15
2022-08-08T15:53:49.032Z,1.52
2022-08-08T15:56:20.143Z,1.50
2022-08-08T15:58:48.483Z,2.13
2022-08-08T16:01:16.213Z,1.55
2022-08-08T16:03:46.103Z,1.35
2022-08-08T16:06:15.404Z,1.20
2022-08-08T16:13:05.819Z,1.50
2022-08-08T16:13:14.686Z,1.50
2022-08-08T16:14:32.877Z,1.25
2022-08-08T16:17:00.971Z,1.48
2022-08-08T16:19:30.193Z,1.58
2022-08-08T16:21:57.868Z,1.23
2022-08-08T16:24:25.077Z,1.10
2022-08-08T16:26:52.246Z,1.20
2022-08-08T16:29:23.923Z,1.42
2022-08-08T16:32:11.233Z,1.33
2022-08-08T16:34:41.453Z,4.00
2022-08-08T16:37:08.606Z,2.78
2022-08-08T16:39:59.943Z,2.70
2022-08-08T16:42:25.788Z,1.88
2022-08-08T16:44:55.193Z,1.85
2022-08-08T16:47:40.307Z,1.83
2022-08-08T16:50:14.056Z,1.63
2022-08-08T16:55:00.744Z,1.83
2022-08-08T16:55:53.404Z,2.20
2022-08-08T16:58:19.482Z,3.20
2022-08-08T17:00:48.457Z,3.25
2022-08-08T17:03:18.168Z,5.43
2022-08-08T17:05:53.820Z,4.57
2022-08-08T17:08:23.570Z,2.30
2022-08-08T17:10:57.480Z,2.05
2022-08-08T17:13:27.601Z,3.00
2022-08-08T17:16:14.931Z,4.15
2022-08-08T17:18:42.792Z,2.50
2022-08-08T17:21:12.652Z,1.83
2022-08-08T17:23:58.381Z,1.60
2022-08-08T17:26:29.428Z,1.70
2022-08-08T17:28:57.001Z,2.00
2022-08-08T17:31:44.064Z,2.17
2022-08-08T17:34:37.112Z,1.90
2022-08-08T17:37:03.157Z,1.95
2022-08-08T17:40:02.836Z,2.10
2022-08-08T17:42:19.233Z,2.38
2022-08-08T17:44:48.992Z,2.85
2022-08-08T17:47:23.948Z,1.75
2022-08-08T17:50:01.197Z,37.00
2022-08-08T17:52:30.720Z,33.03
2022-08-08T17:54:58.023Z,26.10
2022-08-08T17:57:28.713Z,20.13
2022-08-08T18:00:02.720Z,8.88
2022-08-08T18:02:30.219Z,6.85
2022-08-08T18:05:01.009Z,8.90
2022-08-08T18:08:02.764Z,5.47
2022-08-08T18:10:20.109Z,10.02
2022-08-08T18:12:59.104Z,10.35
2022-08-08T18:15:31.183Z,7.05
2022-08-08T18:18:09.216Z,18.33
2022-08-08T18:20:59.301Z,24.42
2022-08-08T18:23:26.898Z,34.53
2022-08-08T18:25:55.338Z,27.25
2022-08-08T18:28:28.768Z,28.80
2022-08-08T18:31:02.943Z,23.05
2022-08-08T18:34:10.498Z,12.93
2022-08-08T18:36:23.189Z,13.55
2022-08-08T18:38:52.173Z,10.60
2022-08-08T18:41:19.357Z,12.88
2022-08-08T18:44:06.500Z,8.38
2022-08-08T18:46:55.906Z,13.77
2022-08-08T18:49:24.646Z,10.02
2022-08-08T18:51:59.862Z,12.75
2022-08-08T18:54:30.007Z,9.32
2022-08-08T18:56:58.077Z,3.63
2022-08-08T18:59:28.965Z,4.85
2022-08-08T19:02:27.691Z,4.65
2022-08-08T19:04:50.873Z,6.57
2022-08-08T19:07:22.888Z,4.97
2022-08-08T19:10:14.347Z,11.05
2022-08-08T19:12:44.243Z,9.98
2022-08-08T19:15:12.298Z,14.73
2022-08-08T19:17:48.464Z,19.45
2022-08-08T19:20:29.999Z,21.45
2022-08-08T19:22:59.295Z,19.92
2022-08-08T19:26:19.809Z,16.08
2022-08-08T19:28:20.151Z,19.67
2022-08-08T19:31:03.354Z,16.65
2022-08-08T19:33:51.679Z,11.13
2022-08-08T19:36:27.627Z,11.60
2022-08-08T19:38:56.061Z,12.20
2022-08-08T19:41:27.105Z,6.72
2022-08-08T19:44:02.408Z,5.00
2022-08-08T19:46:33.222Z,15.48
2022-08-08T19:49:00.943Z,10.88
2022-08-08T19:51:34.572Z,20.05
2022-08-08T19:54:06.629Z,12.30
2022-08-08T19:56:40.168Z,18.95
2022-08-08T19:59:08.889Z,13.65
2022-08-08T20:02:00.916Z,13.63
2022-08-08T20:04:24.181Z,6.45
2022-08-08T20:06:51.798Z,12.38
2022-08-08T20:09:22.618Z,13.02
2022-08-08T20:11:50.633Z,15.23
2022-08-08T20:14:34.603Z,14.45
2022-08-08T20:17:03.084Z,13.65
2022-08-08T20:19:34.353Z,12.80
2022-08-08T20:22:13.403Z,13.02
2022-08-08T20:24:53.003Z,12.48
2022-08-08T20:27:43.880Z,11.60
2022-08-08T20:30:09.788Z,7.15
2022-08-08T20:32:36.977Z,6.15
2022-08-08T20:35:04.759Z,7.22
2022-08-08T20:37:47.194Z,6.03
2022-08-08T20:40:33.703Z,5.70
2022-08-08T20:43:14.081Z,5.38
2022-08-08T20:45:57.929Z,5.60
2022-08-08T20:48:30.938Z,6.32
2022-08-08T20:50:58.664Z,5.93
2022-08-08T20:53:59.323Z,6.32
2022-08-08T20:56:14.187Z,6.40
2022-08-08T20:58:47.719Z,5.85
2022-08-08T21:01:20.353Z,5.95
2022-08-08T21:03:55.556Z,5.97
2022-08-08T21:06:51.963Z,5.93
2022-08-08T21:09:15.824Z,5.47
2022-08-08T21:11:51.798Z,6.15
2022-08-08T21:14:30.382Z,6.03
2022-08-08T21:17:01.607Z,5.32
2022-08-08T21:19:34.088Z,6.20
2022-08-08T21:22:12.790Z,6.57
2022-08-08T21:24:42.091Z,5.85
2022-08-08T21:27:38.618Z,6.07
2022-08-08T21:30:10.737Z,6.45
2022-08-08T21:32:44.355Z,5.75
2022-08-08T21:36:17.526Z,6.22
2022-08-08T21:38:04.034Z,6.03
2022-08-08T21:40:32.869Z,6.60
2022-08-08T21:43:00.143Z,6.30
2022-08-08T21:47:59.770Z,6.18
2022-08-08T21:48:22.979Z,7.00
2022-08-08T21:51:10.063Z,5.95
2022-08-08T21:54:30.773Z,7.18
2022-08-08T21:56:32.795Z,6.60
2022-08-08T21:59:08.806Z,6.72
2022-08-08T22:01:40.876Z,7.18
2022-08-08T22:04:10.597Z,8.82
2022-08-08T22:06:40.387Z,7.05
2022-08-08T22:09:09.092Z,6.85
2022-08-08T22:12:02.136Z,7.93
2022-08-08T22:14:26.742Z,7.88
2022-08-08T22:16:54.510Z,6.25
2022-08-08T22:19:23.933Z,5.55
2022-08-08T22:21:51.846Z,5.82
2022-08-08T22:24:28.037Z,5.40
2022-08-08T22:27:02.021Z,6.63
2022-08-08T22:29:59.224Z,6.40
2022-08-08T22:32:18.236Z,5.95
2022-08-08T22:34:51.337Z,6.15
2022-08-08T22:37:48.694Z,6.35
2022-08-08T22:40:16.429Z,6.20
2022-08-08T22:42:47.232Z,7.38
2022-08-08T22:45:14.845Z,7.85
2022-08-08T22:47:49.433Z,7.30
2022-08-08T22:50:26.322Z,8.00
2022-08-08T22:54:17.054Z,8.02
2022-08-08T22:55:59.077Z,8.05
2022-08-08T22:58:29.188Z,7.95
2022-08-08T23:00:58.347Z,7.63
2022-08-08T23:03:32.981Z,7.60
2022-08-08T23:06:15.902Z,6.47
2022-08-08T23:08:44.561Z,6.55
2022-08-08T23:11:23.335Z,5.90
2022-08-08T23:14:01.237Z,6.85
2022-08-08T23:16:41.764Z,7.20
2022-08-08T23:19:11.409Z,6.40
2022-08-08T23:21:38.893Z,6.95
2022-08-08T23:24:06.774Z,6.10
2022-08-08T23:26:34.408Z,6.03
2022-08-08T23:29:02.019Z,5.85
2022-08-08T23:31:29.212Z,5.07
2022-08-08T23:34:18.681Z,5.72
2022-08-08T23:36:46.550Z,5.93
2022-08-08T23:39:13.859Z,6.18
2022-08-08T23:41:45.885Z,5.38
2022-08-08T23:44:14.649Z,5.97
2022-08-08T23:49:04.328Z,6.35
2022-08-08T23:49:29.257Z,5.53
2022-08-08T23:52:04.763Z,5.57
2022-08-08T23:54:41.332Z,6.40
2022-08-08T23:57:15.409Z,6.35
2022-08-08T23:59:55.475Z,6.05
